Wetterdaten: September 2008
Datum Temp Feuchte Luftdruck Regen Wind Richtung Sonnenschein UV Solar Windben
01.09.2008 16,4 C 77 % 1014,9 hPa 0,2 l/m 5,4 km/h S 6,50 h 2,8 UV-I 316 W/m 16,9 km/h
02.09.2008 16,3 C 77 % 1008,6 hPa 0,0 l/m 12,5 km/h S 2,75 h 1,9 UV-I 215 W/m 19,7 km/h
03.09.2008 11,3 C 87 % 1006,0 hPa 10,4 l/m 6,2 km/h S 3,75 h 1,6 UV-I 187 W/m 10,9 km/h
04.09.2008 10,7 C 85 % 1007,0 hPa 0,2 l/m 6,6 km/h S 7,83 h 2,0 UV-I 307 W/m 12,1 km/h
05.09.2008 15,4 C 87 % 1005,2 hPa 3,4 l/m 16,8 km/h S 4,83 h 2,3 UV-I 253 W/m 27,8 km/h
06.09.2008 16,5 C 80 % 1005,3 hPa 6,0 l/m 13,8 km/h S 1,25 h 1,9 UV-I 173 W/m 18,5 km/h
07.09.2008 14,6 C 82 % 1009,6 hPa 0,0 l/m 15,2 km/h S 4,00 h 1,9 UV-I 255 W/m 22,5 km/h
08.09.2008 12,4 C 84 % 1015,9 hPa 0,0 l/m 6,2 km/h S 0,75 h 1,1 UV-I 114 W/m 10,8 km/h
09.09.2008 13,7 C 81 % 1016,3 hPa 0,0 l/m 3,2 km/h S 9,75 h 2,7 UV-I 377 W/m 5,6 km/h
10.09.2008 15,8 C 89 % 1015,3 hPa 0,0 l/m 1,7 km/h S 2,10 h 1,5 UV-I 180 W/m 4,8 km/h
11.09.2008 17,6 C 80 % 1012,3 hPa 0,0 l/m 3,3 km/h SO 6,33 h 2,5 UV-I 298 W/m 8,8 km/h
12.09.2008 16,3 C 82 % 1012,0 hPa 0,0 l/m 4,0 km/h SO 3,92 h 2,2 UV-I 252 W/m 11,3 km/h
13.09.2008 11,6 C 65 % 1019,2 hPa 0,0 l/m 8,9 km/h NO 8,32 h 2,2 UV-I 354 W/m 22,5 km/h
14.09.2008 9,1 C 83 % 1024,4 hPa 0,2 l/m 3,8 km/h N-NO 4,43 h 1,8 UV-I 254 W/m 11,6 km/h
15.09.2008 8,5 C 88 % 1024,7 hPa 0,0 l/m 4,5 km/h N-NO 0,50 h 1,2 UV-I 132 W/m 8,9 km/h
16.09.2008 9,3 C 85 % 1023,7 hPa 0,0 l/m 2,8 km/h N-NO 2,33 h 1,9 UV-I 212 W/m 6,0 km/h
17.09.2008 7,2 C 89 % 1024,0 hPa 0,0 l/m 0,6 km/h O 2,42 h 1,4 UV-I 169 W/m 1,6 km/h
18.09.2008 6,8 C 77 % 1025,1 hPa 0,0 l/m 2,1 km/h SO 8,58 h 2,1 UV-I 335 W/m 4,4 km/h
19.09.2008 8,2 C 82 % 1027,5 hPa 0,0 l/m 0,8 km/h SO 5,75 h 2,1 UV-I 259 W/m 2,0 km/h
20.09.2008 9,3 C 82 % 1030,9 hPa 0,0 l/m 2,3 km/h N-NO 7,00 h 2,2 UV-I 310 W/m 5,6 km/h
21.09.2008 10,1 C 87 % 1024,2 hPa 1,0 l/m 4,8 km/h N-NW 3,42 h 1,5 UV-I 200 W/m 9,2 km/h
22.09.2008 10,3 C 89 % 1020,2 hPa 0,4 l/m 3,2 km/h N 1,50 h 1,4 UV-I 161 W/m 7,2 km/h
23.09.2008 9,9 C 96 % 1017,3 hPa 10,4 l/m 7,1 km/h N-NW 0,00 h 0,5 UV-I 45 W/m 20,1 km/h
24.09.2008 8,9 C 96 % 1024,6 hPa 0,0 l/m 3,2 km/h NO 0,92 h 0,8 UV-I 99 W/m 8,0 km/h
25.09.2008 9,1 C 88 % 1031,9 hPa 0,2 l/m 4,3 km/h N-NO 4,02 h 1,6 UV-I 225 W/m 11,3 km/h
26.09.2008 8,8 C 90 % 1035,6 hPa 0,0 l/m 1,6 km/h N-NO 8,42 h 2,1 UV-I 309 W/m 4,8 km/h
27.09.2008 7,6 C 85 % 1030,8 hPa 0,2 l/m 2,0 km/h S 8,83 h 2,2 UV-I 317 W/m 3,6 km/h
28.09.2008 9,1 C 84 % 1023,2 hPa 0,0 l/m 3,8 km/h S-SO 8,67 h 1,9 UV-I 297 W/m 9,2 km/h
29.09.2008 9,7 C 92 % 1014,8 hPa 2,8 l/m 3,4 km/h S 0,08 h 0,7 UV-I 82 W/m 9,2 km/h
30.09.2008 9,5 C 92 % 1003,1 hPa 10,4 l/m 15,8 km/h S 0,00 h 0,7 UV-I 60 W/m 22,9 km/h
Min-Datum 18.09.08 13.09.08 30.09.08 13 Tage 02.09.08 - - - - 02.09.08
Min-Zeit 06:45 15:30 23:50 - 00:45 - - - - 00:45
Minimum 1,0 C 44 % 997,9 hPa - 0,0 km/h - - - - 0,0 km/h
Max-Datum 11.09.08 17.09.08 26.09.08 03.09.08 07.09.08 - 09.09.08 01.09.08 07.09.08 30.09.08
Max-Zeit 16:00 05:25 11:40 01:10 14:30 - 18:20 13:30 13:05 23:24
Maximum 23,1 C 100 % 1036,5 hPa 10,4 l/m 26,0 km/h
S
- 9,67 h 5,3 UV-I 907 W/m 48,3 km/h
S
Durchschnitt 11,3 C 85 % 1018,5 hPa #45,8 l/m 5,7 km/h S #128:57 h 1,8 UV-I 225 W/m 11,3 km/h

Durchschnitt Minimum Temp.6,9 C
Durchschnitt Maximum Temp.16,5 C